Time;durP1;ratioP1;P1;durP2;ratioP2;P2;SDS_P1;SDS_P2;PMS_P1;PMS_P2;Temp;Humidity;BMP_temperature;BMP_pressure;BME280_temperature;BME280_humidity;BME280_pressure;Samples;Min_cycle;Max_cycle;Signal;HPM_P1;HPM_P2
2023/10/05 00:01:56;;;;;;;6.77;3.17;;;18.70;65.40;;;;;;5005873;28;20465;-51
2023/10/05 00:04:26;;;;;;;4.40;2.63;;;18.70;65.30;;;;;;5004078;28;20571;-51
2023/10/05 00:06:56;;;;;;;4.50;2.77;;;18.70;65.30;;;;;;5002471;28;20441;-52
2023/10/05 00:09:25;;;;;;;4.37;2.53;;;18.70;65.50;;;;;;5003793;28;20539;-53
2023/10/05 00:11:55;;;;;;;4.80;2.93;;;18.70;65.30;;;;;;5005385;28;20934;-51
2023/10/05 00:14:25;;;;;;;4.83;3.00;;;18.70;65.30;;;;;;5004589;28;20731;-52
2023/10/05 00:16:55;;;;;;;3.20;2.23;;;18.70;65.40;;;;;;5003382;28;20451;-51
2023/10/05 00:19:27;;;;;;;5.10;3.10;;;18.70;65.40;;;;;;5004239;28;20558;-52
2023/10/05 00:21:56;;;;;;;5.37;3.10;;;18.70;65.40;;;;;;5001635;28;20496;-52
2023/10/05 00:24:29;;;;;;;3.90;2.47;;;18.70;65.20;;;;;;5003771;28;20473;-52
2023/10/05 00:26:59;;;;;;;3.23;2.20;;;18.70;65.10;;;;;;5005349;28;20539;-50
2023/10/05 00:29:29;;;;;;;7.00;3.37;;;18.70;65.20;;;;;;5000095;28;20468;-50
2023/10/05 00:32:00;;;;;;;4.90;2.80;;;18.60;65.20;;;;;;4993841;28;20433;-51
2023/10/05 00:34:28;;;;;;;4.63;2.03;;;18.60;65.20;;;;;;5004779;28;20474;-52
2023/10/05 00:36:57;;;;;;;3.70;2.33;;;18.70;65.40;;;;;;5006124;28;20441;-52
2023/10/05 00:39:29;;;;;;;5.13;3.00;;;18.60;65.10;;;;;;5009547;28;20518;-52
2023/10/05 00:42:02;;;;;;;4.10;2.60;;;18.60;65.20;;;;;;5006017;28;20524;-52
2023/10/05 00:44:31;;;;;;;4.40;2.80;;;18.60;65.20;;;;;;5006355;28;21005;-50
2023/10/05 00:47:00;;;;;;;4.93;2.23;;;18.60;65.40;;;;;;5006277;28;20499;-51
2023/10/05 00:49:37;;;;;;;3.60;2.50;;;18.60;65.30;;;;;;4995304;28;20563;-51
2023/10/05 00:52:12;;;;;;;5.37;2.70;;;18.60;65.10;;;;;;5005889;28;20440;-51
2023/10/05 00:54:44;;;;;;;3.83;2.20;;;18.60;65.20;;;;;;5011968;28;20755;-51
2023/10/05 00:57:15;;;;;;;4.63;2.60;;;18.60;65.00;;;;;;5004566;28;20439;-51
2023/10/05 00:59:45;;;;;;;3.37;3.00;;;18.60;65.20;;;;;;5004002;28;20478;-51
2023/10/05 01:02:16;;;;;;;4.73;2.17;;;18.60;65.20;;;;;;5013539;28;20557;-50
2023/10/05 01:04:56;;;;;;;3.77;2.73;;;18.60;65.40;;;;;;5007922;28;20500;-52
2023/10/05 01:07:49;;;;;;;4.00;2.47;;;18.60;65.30;;;;;;5004310;28;20538;-52
2023/10/05 01:10:40;;;;;;;4.80;3.00;;;18.60;65.20;;;;;;5011624;28;20448;-50
2023/10/05 01:13:28;;;;;;;4.23;2.73;;;18.60;65.40;;;;;;5007136;28;20516;-52
2023/10/05 01:15:57;;;;;;;4.70;2.90;;;18.60;65.20;;;;;;5008357;28;20517;-51
2023/10/05 01:18:27;;;;;;;3.70;2.93;;;18.60;65.20;;;;;;5011609;28;20476;-52
2023/10/05 01:20:57;;;;;;;3.50;2.20;;;18.60;65.20;;;;;;4992237;28;20480;-51
2023/10/05 01:23:38;;;;;;;2.93;2.00;;;18.60;65.20;;;;;;5006670;28;20563;-51
2023/10/05 01:26:10;;;;;;;3.97;2.43;;;18.60;64.90;;;;;;5007310;28;20524;-51
2023/10/05 01:28:41;;;;;;;3.70;2.00;;;18.60;65.10;;;;;;4998714;28;20468;-51
2023/10/05 01:31:16;;;;;;;4.30;2.53;;;18.50;65.00;;;;;;5006377;28;20437;-51
2023/10/05 01:33:46;;;;;;;4.33;2.50;;;18.60;65.00;;;;;;5006199;28;21082;-50
2023/10/05 01:36:15;;;;;;;6.37;2.60;;;18.60;65.00;;;;;;5002091;28;20492;-51
2023/10/05 01:38:48;;;;;;;5.10;2.83;;;18.60;65.00;;;;;;5004319;28;20551;-52
2023/10/05 01:41:21;;;;;;;3.27;2.47;;;18.60;64.90;;;;;;5006900;28;20487;-51
2023/10/05 01:43:51;;;;;;;3.90;2.33;;;18.60;65.20;;;;;;4996638;28;20993;-51
2023/10/05 01:46:21;;;;;;;4.23;2.30;;;18.50;64.80;;;;;;5005087;28;20441;-50
2023/10/05 01:48:51;;;;;;;3.30;1.93;;;18.50;64.90;;;;;;5008309;28;20459;-51
2023/10/05 01:51:23;;;;;;;6.40;2.90;;;18.50;65.30;;;;;;5006200;28;20449;-51
2023/10/05 01:54:02;;;;;;;3.20;2.20;;;18.50;65.10;;;;;;5007431;28;20479;-50
2023/10/05 01:56:30;;;;;;;4.20;2.87;;;18.50;65.10;;;;;;5006286;28;20440;-52
2023/10/05 01:59:00;;;;;;;2.83;2.00;;;18.50;65.20;;;;;;4993093;28;20481;-51
2023/10/05 02:01:29;;;;;;;3.33;2.00;;;18.50;65.20;;;;;;4992783;28;20461;-50
2023/10/05 02:03:59;;;;;;;3.47;1.80;;;18.50;65.20;;;;;;5006105;28;20868;-51
2023/10/05 02:06:29;;;;;;;4.17;2.10;;;18.50;65.30;;;;;;5000969;28;20457;-52
2023/10/05 02:08:58;;;;;;;4.83;2.63;;;18.50;65.20;;;;;;5008316;28;20544;-51
2023/10/05 02:11:28;;;;;;;2.73;1.63;;;18.50;65.20;;;;;;5006487;28;20452;-51
2023/10/05 02:14:04;;;;;;;3.87;2.60;;;18.50;65.00;;;;;;5006211;28;20559;-50
2023/10/05 02:16:33;;;;;;;3.10;2.00;;;18.50;65.20;;;;;;5008514;28;20813;-51
2023/10/05 02:19:03;;;;;;;2.53;1.80;;;18.50;65.10;;;;;;4991720;28;20883;-51
2023/10/05 02:21:36;;;;;;;3.20;2.00;;;18.50;65.20;;;;;;5005566;28;20511;-51
2023/10/05 02:24:10;;;;;;;3.80;2.87;;;18.50;65.10;;;;;;5007910;28;20516;-51
2023/10/05 02:26:54;;;;;;;4.33;2.50;;;18.50;65.00;;;;;;5004614;28;20421;-51
2023/10/05 02:29:23;;;;;;;2.37;1.83;;;18.50;65.20;;;;;;4995307;28;20507;-52
2023/10/05 02:32:09;;;;;;;4.50;2.53;;;18.50;65.20;;;;;;5004752;28;21005;-52
2023/10/05 02:34:41;;;;;;;4.00;2.00;;;18.50;65.20;;;;;;5003894;28;20477;-52
2023/10/05 02:37:11;;;;;;;3.03;2.20;;;18.50;65.10;;;;;;5000275;28;20860;-52
2023/10/05 02:39:42;;;;;;;2.97;2.03;;;18.50;65.10;;;;;;4992278;28;20648;-50
2023/10/05 02:42:13;;;;;;;3.07;1.87;;;18.50;65.10;;;;;;4996236;28;20435;-52
2023/10/05 02:44:42;;;;;;;3.20;1.83;;;18.50;65.10;;;;;;4987959;28;20575;-50
2023/10/05 02:47:13;;;;;;;3.53;2.10;;;18.50;66.40;;;;;;5005283;28;20472;-51
2023/10/05 02:49:44;;;;;;;3.73;2.50;;;18.50;65.10;;;;;;5006294;28;20460;-51
2023/10/05 02:52:15;;;;;;;2.63;1.50;;;18.50;65.20;;;;;;5000481;28;20453;-52
2023/10/05 02:54:47;;;;;;;3.03;2.13;;;18.50;65.20;;;;;;5005348;28;20487;-51
2023/10/05 02:57:17;;;;;;;4.23;2.07;;;18.40;65.00;;;;;;4994982;28;20451;-51
2023/10/05 02:59:45;;;;;;;4.67;2.87;;;18.40;65.10;;;;;;4984015;28;20534;-51
2023/10/05 03:02:16;;;;;;;3.13;2.07;;;18.50;65.20;;;;;;4984874;28;20464;-51
2023/10/05 03:04:46;;;;;;;5.23;2.40;;;18.40;65.10;;;;;;5001580;28;20488;-51
2023/10/05 03:07:20;;;;;;;5.70;2.10;;;18.40;65.10;;;;;;4988633;28;20450;-52
2023/10/05 03:09:52;;;;;;;4.53;2.53;;;18.40;65.00;;;;;;4989609;28;20457;-51
2023/10/05 03:12:23;;;;;;;4.17;2.40;;;18.40;65.00;;;;;;5005635;28;20436;-50
2023/10/05 03:14:54;;;;;;;3.73;2.30;;;18.40;65.00;;;;;;4991150;28;20797;-49
2023/10/05 03:17:26;;;;;;;5.27;3.00;;;18.40;65.00;;;;;;4995743;28;20441;-51
2023/10/05 03:19:55;;;;;;;3.70;2.00;;;18.40;64.70;;;;;;5003690;28;20827;-50
2023/10/05 03:22:24;;;;;;;3.40;2.10;;;18.40;64.70;;;;;;4988581;28;21317;-51
2023/10/05 03:24:58;;;;;;;3.00;1.90;;;18.40;64.80;;;;;;4993750;28;20457;-52
2023/10/05 03:27:27;;;;;;;2.60;1.77;;;18.40;65.20;;;;;;5006886;28;20432;-52
2023/10/05 03:30:01;;;;;;;2.60;1.77;;;18.40;65.20;;;;;;5006310;28;20503;-52
2023/10/05 03:32:31;;;;;;;1.70;1.50;;;18.40;65.10;;;;;;4988753;28;20934;-52
2023/10/05 03:35:00;;;;;;;3.13;2.07;;;18.40;65.10;;;;;;5009246;28;20816;-50
2023/10/05 03:37:31;;;;;;;4.57;2.47;;;18.40;65.10;;;;;;4995228;28;20559;-50
2023/10/05 03:40:08;;;;;;;3.13;1.63;;;18.40;64.90;;;;;;5004092;28;20451;-52
2023/10/05 03:42:36;;;;;;;3.00;2.10;;;18.40;65.10;;;;;;4992723;28;20448;-51
2023/10/05 03:45:09;;;;;;;3.17;2.10;;;18.40;65.00;;;;;;4989895;28;20479;-52
2023/10/05 03:47:38;;;;;;;4.87;2.33;;;18.40;65.20;;;;;;4991927;28;20515;-51
2023/10/05 03:50:16;;;;;;;3.17;2.10;;;18.40;65.00;;;;;;4991148;28;20445;-52
2023/10/05 03:52:48;;;;;;;2.93;2.10;;;18.40;65.10;;;;;;4982656;28;20448;-51
2023/10/05 03:55:19;;;;;;;5.53;2.10;;;18.30;64.90;;;;;;5006005;28;20499;-51
2023/10/05 03:57:54;;;;;;;4.33;2.20;;;18.40;65.00;;;;;;4987341;28;20453;-51
2023/10/05 04:00:31;;;;;;;3.00;1.83;;;18.30;64.90;;;;;;5004088;28;20886;-51
2023/10/05 04:03:02;;;;;;;4.40;2.00;;;18.30;65.20;;;;;;5002438;28;20473;-51
2023/10/05 04:05:32;;;;;;;3.77;1.77;;;18.30;65.10;;;;;;5009746;28;20539;-52
2023/10/05 04:08:10;;;;;;;3.60;2.10;;;18.30;65.10;;;;;;4993541;28;20456;-50
2023/10/05 04:10:49;;;;;;;2.83;1.67;;;18.30;64.90;;;;;;5008157;28;20527;-52
2023/10/05 04:13:20;;;;;;;4.23;2.23;;;18.30;65.10;;;;;;5008409;28;20476;-50
2023/10/05 04:15:50;;;;;;;3.87;2.00;;;18.30;65.00;;;;;;5005896;28;20451;-52
2023/10/05 04:18:20;;;;;;;2.67;1.77;;;18.30;65.00;;;;;;5008021;28;20500;-51
2023/10/05 04:20:50;;;;;;;3.47;2.00;;;18.30;65.10;;;;;;5005651;28;20429;-51
2023/10/05 04:23:25;;;;;;;4.17;2.07;;;18.30;65.20;;;;;;5011994;28;20540;-51
2023/10/05 04:25:56;;;;;;;3.57;1.93;;;18.30;65.00;;;;;;5005433;28;20440;-51
2023/10/05 04:28:32;;;;;;;4.30;2.10;;;18.30;65.10;;;;;;5007940;28;20471;-52
2023/10/05 04:31:03;;;;;;;3.23;2.10;;;18.30;65.00;;;;;;5001841;28;20441;-50
2023/10/05 04:33:34;;;;;;;3.60;2.23;;;18.30;65.20;;;;;;5005737;28;20531;-52
2023/10/05 04:36:05;;;;;;;2.53;1.53;;;18.30;65.20;;;;;;5000289;28;20457;-52
2023/10/05 04:38:33;;;;;;;1.93;1.40;;;18.30;65.10;;;;;;5006543;28;20461;-51
2023/10/05 04:41:02;;;;;;;4.67;2.17;;;18.20;65.00;;;;;;5013318;28;20436;-50
2023/10/05 04:43:31;;;;;;;3.20;1.97;;;18.30;65.00;;;;;;5004550;28;20484;-50
2023/10/05 04:46:05;;;;;;;3.07;1.90;;;18.30;66.40;;;;;;5006169;28;20484;-51
2023/10/05 04:48:33;;;;;;;5.00;2.03;;;18.30;65.20;;;;;;5004747;28;20448;-50
2023/10/05 04:51:05;;;;;;;2.83;1.80;;;18.30;65.20;;;;;;5003531;28;20453;-51
2023/10/05 04:53:36;;;;;;;3.33;1.77;;;18.30;65.40;;;;;;5007795;28;20472;-51
2023/10/05 04:56:12;;;;;;;5.03;2.67;;;18.30;65.20;;;;;;5008522;28;20821;-51
2023/10/05 04:59:06;;;;;;;4.93;2.10;;;18.30;65.30;;;;;;5010286;28;20469;-53
2023/10/05 05:01:46;;;;;;;5.60;2.23;;;18.30;65.30;;;;;;5006847;28;20467;-50
2023/10/05 05:04:27;;;;;;;3.43;2.00;;;18.20;65.10;;;;;;5006932;28;20558;-52
2023/10/05 05:06:55;;;;;;;3.13;1.53;;;18.20;65.20;;;;;;5003812;28;20440;-51
2023/10/05 05:09:29;;;;;;;3.50;1.93;;;18.20;65.20;;;;;;5006110;28;20861;-52
2023/10/05 05:12:03;;;;;;;5.20;1.40;;;18.20;65.20;;;;;;5009527;28;20433;-51
2023/10/05 05:14:33;;;;;;;3.73;1.80;;;18.20;65.30;;;;;;5004261;28;20990;-52
2023/10/05 05:17:04;;;;;;;2.20;1.67;;;18.20;65.20;;;;;;5000505;28;20842;-52
2023/10/05 05:19:35;;;;;;;3.23;2.07;;;18.20;65.20;;;;;;5010596;28;21057;-52
2023/10/05 05:22:05;;;;;;;3.37;2.00;;;18.20;65.30;;;;;;5003358;28;20445;-51
2023/10/05 05:24:33;;;;;;;2.40;1.60;;;18.20;65.10;;;;;;5003845;28;20560;-51
2023/10/05 05:27:04;;;;;;;4.80;3.10;;;18.20;65.20;;;;;;5007513;28;20495;-51
2023/10/05 05:29:33;;;;;;;4.20;1.80;;;18.20;65.20;;;;;;4997489;28;20918;-52
2023/10/05 05:32:10;;;;;;;4.67;1.80;;;18.20;65.20;;;;;;5004218;28;20429;-52
2023/10/05 05:34:41;;;;;;;4.70;1.90;;;18.20;65.20;;;;;;5011526;28;20462;-52
2023/10/05 05:37:11;;;;;;;5.97;1.90;;;18.20;65.30;;;;;;5007441;28;20511;-52
2023/10/05 05:39:39;;;;;;;3.40;1.43;;;18.20;65.20;;;;;;5008802;28;20472;-51
2023/10/05 05:42:15;;;;;;;4.33;1.97;;;18.10;65.20;;;;;;5011394;28;20426;-51
2023/10/05 05:44:43;;;;;;;2.47;1.43;;;18.20;65.50;;;;;;5005917;28;20858;-52
2023/10/05 05:47:14;;;;;;;2.00;1.33;;;18.10;65.30;;;;;;5006324;28;20440;-54
2023/10/05 05:49:45;;;;;;;5.47;2.30;;;18.20;65.40;;;;;;4997377;28;20571;-50
2023/10/05 05:52:14;;;;;;;3.53;1.60;;;18.20;65.20;;;;;;5006266;28;20520;-51
2023/10/05 05:54:46;;;;;;;2.20;1.70;;;18.10;65.20;;;;;;5007696;28;20512;-50
2023/10/05 05:57:20;;;;;;;3.63;1.63;;;18.10;65.20;;;;;;5006070;28;20437;-51
2023/10/05 05:59:49;;;;;;;2.97;2.00;;;18.10;65.20;;;;;;5008935;28;20476;-50
2023/10/05 06:02:17;;;;;;;2.90;1.93;;;18.10;65.30;;;;;;5011045;28;20985;-51
2023/10/05 06:04:48;;;;;;;2.70;1.53;;;18.10;65.40;;;;;;5010477;28;20476;-51
2023/10/05 06:07:17;;;;;;;3.33;1.53;;;18.10;65.50;;;;;;5006897;28;20858;-50
2023/10/05 06:09:45;;;;;;;3.50;2.00;;;18.10;65.30;;;;;;5005412;28;20566;-51
2023/10/05 06:12:16;;;;;;;4.50;1.87;;;18.10;65.50;;;;;;5005813;28;20806;-50
2023/10/05 06:14:44;;;;;;;3.90;2.00;;;18.10;65.40;;;;;;5005332;28;20472;-51
2023/10/05 06:17:12;;;;;;;2.50;1.47;;;18.10;65.50;;;;;;5007765;28;20448;-50
2023/10/05 06:19:41;;;;;;;3.50;1.90;;;18.10;65.50;;;;;;5008649;28;20982;-51
2023/10/05 06:22:09;;;;;;;2.03;1.50;;;18.10;65.60;;;;;;5007694;28;20452;-52
2023/10/05 06:24:42;;;;;;;3.17;1.80;;;18.10;65.60;;;;;;5009305;28;20834;-51
2023/10/05 06:27:12;;;;;;;1.80;1.40;;;18.10;65.70;;;;;;5000031;28;20532;-50
2023/10/05 06:29:42;;;;;;;2.93;1.90;;;18.10;65.50;;;;;;5006186;28;20510;-50
2023/10/05 06:32:10;;;;;;;3.53;2.20;;;18.10;65.60;;;;;;5007937;28;20425;-51
2023/10/05 06:34:38;;;;;;;2.30;1.63;;;18.10;65.60;;;;;;5009611;28;20476;-50
2023/10/05 06:37:06;;;;;;;3.37;1.90;;;18.00;65.50;;;;;;5002687;28;20444;-52
2023/10/05 06:39:34;;;;;;;3.67;1.90;;;18.10;65.70;;;;;;4989191;28;20472;-50
2023/10/05 06:42:04;;;;;;;3.43;1.97;;;18.10;65.70;;;;;;5007679;28;20440;-51
2023/10/05 06:44:35;;;;;;;6.60;2.20;;;18.10;65.80;;;;;;5005851;28;20580;-50
2023/10/05 06:47:05;;;;;;;4.03;1.50;;;18.00;65.70;;;;;;5005762;28;20520;-51
2023/10/05 06:49:35;;;;;;;4.10;1.63;;;18.10;65.80;;;;;;5006840;28;20477;-50
2023/10/05 06:52:06;;;;;;;2.50;1.77;;;18.10;65.70;;;;;;5006575;28;21236;-50
2023/10/05 06:54:35;;;;;;;2.50;1.63;;;18.10;65.90;;;;;;5006097;28;20484;-51
2023/10/05 06:57:03;;;;;;;2.43;1.63;;;18.10;65.80;;;;;;5006884;28;20790;-50
2023/10/05 06:59:33;;;;;;;3.80;1.90;;;18.00;65.80;;;;;;5005619;28;20868;-51
2023/10/05 07:02:02;;;;;;;3.63;2.03;;;18.00;65.70;;;;;;5004748;28;20840;-50
2023/10/05 07:04:32;;;;;;;3.50;2.07;;;18.00;65.80;;;;;;5004914;28;20557;-51
2023/10/05 07:07:00;;;;;;;2.90;1.80;;;18.00;65.90;;;;;;5003169;28;20445;-52
2023/10/05 07:09:29;;;;;;;3.73;1.40;;;18.00;65.80;;;;;;5006205;28;20473;-50
2023/10/05 07:11:57;;;;;;;1.57;1.20;;;18.00;65.80;;;;;;5006276;28;20425;-51
2023/10/05 07:14:25;;;;;;;3.00;1.20;;;18.00;65.90;;;;;;5005869;28;20472;-50
2023/10/05 07:16:55;;;;;;;4.10;1.53;;;18.00;65.80;;;;;;5002613;28;20437;-50
2023/10/05 07:19:23;;;;;;;3.03;1.83;;;18.00;65.90;;;;;;5007639;28;20527;-51
2023/10/05 07:21:53;;;;;;;3.83;2.10;;;18.00;65.90;;;;;;5002426;28;20437;-52
2023/10/05 07:24:22;;;;;;;2.70;1.77;;;18.00;65.90;;;;;;5005885;28;20484;-50
2023/10/05 07:26:51;;;;;;;4.70;1.97;;;18.00;65.90;;;;;;5005498;28;20988;-51
2023/10/05 07:29:20;;;;;;;2.57;1.67;;;18.00;65.80;;;;;;5004396;28;20477;-51
2023/10/05 07:31:58;;;;;;;3.03;1.67;;;18.00;65.90;;;;;;5007080;28;20488;-49
2023/10/05 07:34:27;;;;;;;2.80;1.93;;;18.00;65.90;;;;;;5005694;28;20998;-51
2023/10/05 07:36:57;;;;;;;3.83;1.63;;;18.00;65.90;;;;;;5003101;28;20437;-50
2023/10/05 07:39:25;;;;;;;3.77;2.07;;;18.00;66.00;;;;;;5005130;28;20472;-51
2023/10/05 07:41:53;;;;;;;3.27;1.77;;;18.00;67.30;;;;;;5009689;28;20421;-50
2023/10/05 07:44:22;;;;;;;2.20;1.33;;;18.00;66.00;;;;;;4993320;28;20930;-50
2023/10/05 07:46:51;;;;;;;5.73;1.63;;;18.00;66.00;;;;;;5008226;28;20575;-52
2023/10/05 07:49:20;;;;;;;3.30;1.97;;;18.00;65.90;;;;;;5010016;28;20838;-51
2023/10/05 07:51:48;;;;;;;2.50;1.90;;;18.00;66.00;;;;;;5005196;28;20545;-50
2023/10/05 07:54:18;;;;;;;3.50;2.10;;;18.00;66.00;;;;;;5008291;28;20483;-50
2023/10/05 07:56:46;;;;;;;2.60;1.43;;;18.00;65.90;;;;;;5014650;28;20427;-50
2023/10/05 07:59:14;;;;;;;4.33;1.80;;;18.00;66.00;;;;;;5008052;28;20848;-50
2023/10/05 08:01:45;;;;;;;2.00;1.40;;;18.00;66.00;;;;;;5008441;28;20829;-50
2023/10/05 08:04:14;;;;;;;3.47;1.50;;;18.00;66.00;;;;;;5011838;28;20535;-51
2023/10/05 08:06:44;;;;;;;2.83;1.43;;;18.00;66.00;;;;;;5007669;28;20564;-50
2023/10/05 08:09:15;;;;;;;3.53;1.43;;;18.00;66.20;;;;;;5007409;28;20481;-51
2023/10/05 08:11:45;;;;;;;2.73;1.60;;;18.00;66.10;;;;;;5008085;28;20835;-50
2023/10/05 08:14:14;;;;;;;3.97;1.70;;;18.00;66.30;;;;;;5006695;28;20479;-52
2023/10/05 08:16:42;;;;;;;6.20;2.77;;;18.00;66.20;;;;;;5010582;28;20488;-50
2023/10/05 08:19:10;;;;;;;2.60;1.60;;;18.00;66.20;;;;;;5007771;28;20465;-51
2023/10/05 08:21:40;;;;;;;4.30;2.07;;;18.00;66.20;;;;;;5007901;28;20452;-49
2023/10/05 08:24:09;;;;;;;4.00;1.93;;;18.00;66.30;;;;;;5006747;28;20480;-50
2023/10/05 08:26:39;;;;;;;3.07;1.90;;;18.00;66.30;;;;;;5008022;28;20483;-50
2023/10/05 08:29:09;;;;;;;3.20;1.60;;;18.00;66.30;;;;;;5005843;28;20461;-52
2023/10/05 08:31:38;;;;;;;3.47;1.77;;;17.90;66.30;;;;;;5006731;28;20451;-51
2023/10/05 08:34:08;;;;;;;3.37;1.70;;;17.90;66.20;;;;;;5003361;28;20457;-51
2023/10/05 08:36:38;;;;;;;4.53;1.67;;;17.90;66.60;;;;;;5006860;28;20468;-51
2023/10/05 08:39:08;;;;;;;3.37;1.77;;;17.90;66.30;;;;;;5010625;28;20873;-52
2023/10/05 08:41:41;;;;;;;2.90;1.30;;;17.90;66.30;;;;;;5008089;28;20462;-51
2023/10/05 08:44:15;;;;;;;2.80;1.60;;;17.90;66.20;;;;;;5007975;28;20564;-52
2023/10/05 08:46:44;;;;;;;3.90;2.30;;;17.90;66.30;;;;;;5007984;28;20482;-50
2023/10/05 08:49:15;;;;;;;2.70;1.27;;;17.90;66.30;;;;;;5007524;28;20556;-52
2023/10/05 08:51:44;;;;;;;4.30;1.83;;;17.90;66.30;;;;;;5006570;28;20875;-50
2023/10/05 08:54:28;;;;;;;2.77;1.27;;;17.90;66.30;;;;;;5011456;28;20460;-50
2023/10/05 08:56:59;;;;;;;4.97;1.57;;;17.90;66.40;;;;;;5010513;28;20436;-49
2023/10/05 08:59:29;;;;;;;1.43;1.10;;;17.90;66.40;;;;;;5010755;28;20495;-51
2023/10/05 09:01:59;;;;;;;2.37;1.50;;;17.90;66.40;;;;;;5015392;28;20462;-49
2023/10/05 09:04:43;;;;;;;2.53;1.70;;;17.90;66.40;;;;;;5015663;28;20483;-51
2023/10/05 09:07:29;;;;;;;2.67;1.63;;;17.90;66.40;;;;;;4999568;28;20457;-50
2023/10/05 09:09:58;;;;;;;2.07;1.60;;;17.90;66.50;;;;;;5001719;28;21060;-50
2023/10/05 09:12:37;;;;;;;2.27;1.23;;;17.90;66.30;;;;;;4993129;28;20472;-51
2023/10/05 09:15:18;;;;;;;3.33;1.70;;;17.90;66.30;;;;;;5009946;28;20885;-51
2023/10/05 09:18:17;;;;;;;3.33;2.10;;;17.90;66.50;;;;;;5005798;28;20590;-50
2023/10/05 09:20:51;;;;;;;4.63;1.60;;;17.90;66.50;;;;;;5003882;28;20421;-51
2023/10/05 09:23:20;;;;;;;2.80;1.97;;;17.90;66.50;;;;;;5010284;28;20570;-50
2023/10/05 09:25:49;;;;;;;3.07;1.70;;;17.90;66.50;;;;;;5007747;28;20450;-51
2023/10/05 09:28:33;;;;;;;3.63;1.60;;;17.90;66.50;;;;;;5007224;28;20549;-51
2023/10/05 09:31:07;;;;;;;3.23;1.73;;;17.90;66.50;;;;;;5007840;28;20537;-51
2023/10/05 09:33:49;;;;;;;2.77;1.20;;;17.90;66.60;;;;;;5006482;28;20471;-51
2023/10/05 09:36:20;;;;;;;3.43;1.77;;;17.90;66.50;;;;;;5003187;28;20434;-50
2023/10/05 09:38:48;;;;;;;3.80;2.10;;;17.90;66.60;;;;;;5005143;28;20490;-50
2023/10/05 09:41:19;;;;;;;2.50;1.53;;;17.90;66.50;;;;;;5009298;28;20436;-51
2023/10/05 09:43:58;;;;;;;2.70;1.43;;;17.90;66.50;;;;;;5004723;28;20479;-50
2023/10/05 09:46:29;;;;;;;2.63;1.73;;;17.90;66.70;;;;;;5011310;28;20918;-50
2023/10/05 09:49:01;;;;;;;3.13;1.63;;;17.90;66.60;;;;;;5007674;28;20445;-50
2023/10/05 09:51:34;;;;;;;1.77;1.67;;;17.90;66.60;;;;;;5002288;28;21047;-50
2023/10/05 09:54:03;;;;;;;2.27;1.20;;;17.90;66.70;;;;;;5011180;28;20472;-51
2023/10/05 09:56:41;;;;;;;2.40;1.87;;;17.90;66.60;;;;;;5003837;28;20421;-50
2023/10/05 09:59:15;;;;;;;2.13;1.53;;;17.90;66.70;;;;;;5010138;28;20562;-52
2023/10/05 10:01:47;;;;;;;1.80;1.07;;;17.90;66.70;;;;;;5010434;28;20435;-51
2023/10/05 10:04:35;;;;;;;2.70;1.50;;;17.90;66.70;;;;;;5008117;28;20786;-51
2023/10/05 10:07:13;;;;;;;2.70;1.30;;;17.90;66.60;;;;;;5004965;28;21045;-50
2023/10/05 10:09:44;;;;;;;6.10;1.73;;;17.90;66.70;;;;;;5006389;28;20473;-52
2023/10/05 10:12:25;;;;;;;2.47;1.63;;;17.90;66.60;;;;;;5006616;28;20467;-51
2023/10/05 10:14:58;;;;;;;2.97;1.50;;;17.90;66.70;;;;;;5003663;28;20501;-51
2023/10/05 10:17:33;;;;;;;4.00;1.60;;;17.90;68.00;;;;;;5008990;28;20425;-50
2023/10/05 10:20:18;;;;;;;3.00;1.83;;;17.90;67.90;;;;;;5009367;28;20485;-51
2023/10/05 10:22:53;;;;;;;3.67;1.87;;;17.90;66.70;;;;;;5003422;28;20462;-51
2023/10/05 10:25:31;;;;;;;2.13;1.30;;;17.90;66.70;;;;;;5007052;28;20761;-50
2023/10/05 10:28:18;;;;;;;2.67;1.57;;;17.90;66.60;;;;;;5006629;28;20472;-51
2023/10/05 10:31:11;;;;;;;3.83;1.50;;;17.90;66.60;;;;;;5000594;28;20543;-51
2023/10/05 10:33:43;;;;;;;6.10;2.07;;;17.90;66.60;;;;;;5006394;28;20472;-51
2023/10/05 10:36:18;;;;;;;2.40;1.50;;;17.90;66.50;;;;;;5003984;28;20529;-50
2023/10/05 10:38:51;;;;;;;3.80;1.53;;;17.90;66.50;;;;;;5009209;28;20476;-50
2023/10/05 10:41:22;;;;;;;3.80;1.10;;;17.90;66.60;;;;;;5006792;28;21067;-50
2023/10/05 10:43:52;;;;;;;2.70;1.60;;;17.80;66.60;;;;;;5008682;28;20582;-51
2023/10/05 10:46:29;;;;;;;3.10;1.80;;;17.90;66.60;;;;;;5007703;28;20491;-50
2023/10/05 10:49:07;;;;;;;2.20;1.50;;;17.90;66.60;;;;;;5004286;28;20469;-49
2023/10/05 10:51:38;;;;;;;3.20;1.47;;;17.80;66.60;;;;;;5004357;28;20451;-53
2023/10/05 10:54:14;;;;;;;2.80;1.93;;;17.80;66.70;;;;;;5005652;28;20513;-50
2023/10/05 10:56:44;;;;;;;3.17;1.50;;;17.80;66.60;;;;;;5003209;28;20425;-50
2023/10/05 10:59:14;;;;;;;1.97;1.67;;;17.80;66.60;;;;;;5003177;28;20523;-51
2023/10/05 11:01:52;;;;;;;1.93;1.30;;;17.80;66.70;;;;;;4999479;28;20440;-52
2023/10/05 11:04:36;;;;;;;2.13;1.40;;;17.80;66.70;;;;;;5006767;28;20522;-50
2023/10/05 11:07:26;;;;;;;3.23;1.30;;;17.90;66.80;;;;;;5002085;28;20476;-52
2023/10/05 11:09:55;;;;;;;2.90;1.50;;;17.80;66.80;;;;;;5005601;28;20464;-50
2023/10/05 11:12:23;;;;;;;3.50;1.40;;;17.80;66.80;;;;;;5005385;28;20441;-50
2023/10/05 11:15:08;;;;;;;2.90;1.70;;;17.80;66.80;;;;;;5001573;28;20487;-50
2023/10/05 11:17:43;;;;;;;3.23;1.60;;;17.90;66.90;;;;;;5004154;28;21004;-51
2023/10/05 11:20:25;;;;;;;2.27;1.40;;;17.80;66.90;;;;;;5005505;28;21020;-50
2023/10/05 11:22:55;;;;;;;3.20;1.20;;;17.80;66.80;;;;;;5006452;28;20919;-50
2023/10/05 11:25:33;;;;;;;2.33;2.13;;;17.80;66.80;;;;;;5006671;28;20539;-51
2023/10/05 11:28:07;;;;;;;1.93;1.10;;;17.80;66.80;;;;;;5002922;28;20468;-50
2023/10/05 11:30:42;;;;;;;4.27;1.80;;;17.80;66.80;;;;;;5004012;28;20518;-52
2023/10/05 11:33:35;;;;;;;3.30;1.50;;;17.80;67.00;;;;;;5006191;28;20519;-51
2023/10/05 11:36:28;;;;;;;2.40;1.27;;;17.80;66.90;;;;;;5000961;28;20456;-51
2023/10/05 11:38:59;;;;;;;3.70;1.37;;;17.80;67.00;;;;;;5003972;28;20858;-51
2023/10/05 11:41:29;;;;;;;3.37;1.33;;;17.80;66.90;;;;;;5005250;28;21110;-51
2023/10/05 11:43:58;;;;;;;2.27;1.50;;;17.80;67.00;;;;;;5003865;28;21022;-50
2023/10/05 11:46:43;;;;;;;3.20;2.07;;;17.80;67.00;;;;;;5001397;28;20457;-50
2023/10/05 11:49:13;;;;;;;2.40;1.57;;;17.80;67.20;;;;;;5006031;28;20469;-51
2023/10/05 11:51:48;;;;;;;3.13;1.43;;;17.80;67.10;;;;;;5004355;28;20488;-52
2023/10/05 11:54:16;;;;;;;6.80;1.73;;;17.80;67.20;;;;;;5008657;28;20614;-50
2023/10/05 11:56:47;;;;;;;3.47;1.60;;;17.80;67.30;;;;;;5006542;28;20487;-50
2023/10/05 11:59:15;;;;;;;2.83;1.97;;;17.80;67.30;;;;;;5001891;28;20515;-50
2023/10/05 12:01:44;;;;;;;2.10;1.70;;;17.80;67.20;;;;;;5006850;28;21106;-50
2023/10/05 12:04:12;;;;;;;4.60;1.40;;;17.80;67.20;;;;;;5008543;28;21038;-50
2023/10/05 12:06:42;;;;;;;4.53;1.90;;;17.80;67.00;;;;;;5002003;28;20445;-50
2023/10/05 12:09:27;;;;;;;6.63;2.40;;;17.80;67.00;;;;;;5004877;28;20484;-49
2023/10/05 12:11:55;;;;;;;2.00;1.50;;;17.90;67.20;;;;;;5012049;28;20435;-50
2023/10/05 12:14:24;;;;;;;3.23;1.50;;;17.90;67.20;;;;;;5003106;28;20476;-51
2023/10/05 12:16:56;;;;;;;2.60;1.33;;;17.90;67.20;;;;;;5005079;28;20514;-51
2023/10/05 12:19:28;;;;;;;2.53;1.30;;;17.90;67.20;;;;;;5008821;28;20487;-51
2023/10/05 12:22:01;;;;;;;2.57;1.57;;;17.90;67.30;;;;;;5004448;28;20472;-50
2023/10/05 12:24:30;;;;;;;2.83;1.80;;;17.90;67.20;;;;;;5004393;28;21081;-51
2023/10/05 12:26:59;;;;;;;1.70;1.33;;;17.90;67.20;;;;;;5007457;28;20665;-50
2023/10/05 12:29:29;;;;;;;2.60;1.50;;;17.90;67.20;;;;;;5003481;28;21014;-51
2023/10/05 12:32:08;;;;;;;1.80;0.97;;;17.90;67.10;;;;;;5006023;28;20958;-51
2023/10/05 12:34:37;;;;;;;2.00;1.33;;;17.90;67.10;;;;;;5006775;28;20461;-50
2023/10/05 12:37:08;;;;;;;3.77;1.60;;;17.90;67.10;;;;;;5008248;28;20456;-49
2023/10/05 12:39:37;;;;;;;1.73;1.23;;;17.90;67.10;;;;;;5007960;28;20461;-51
2023/10/05 12:42:06;;;;;;;2.37;1.60;;;17.90;67.10;;;;;;5008936;28;20439;-51
2023/10/05 12:44:36;;;;;;;5.60;2.00;;;17.90;67.00;;;;;;4996247;28;20468;-50
2023/10/05 12:47:07;;;;;;;1.90;1.23;;;17.90;67.00;;;;;;5005036;28;20988;-51
2023/10/05 12:49:36;;;;;;;1.77;1.30;;;17.90;67.10;;;;;;5011696;28;20483;-51
2023/10/05 12:52:08;;;;;;;2.30;1.47;;;17.90;66.90;;;;;;5001875;28;20441;-52
2023/10/05 12:54:42;;;;;;;2.47;1.60;;;17.90;66.70;;;;;;5009799;28;20556;-50
2023/10/05 12:57:12;;;;;;;1.70;1.20;;;17.90;66.80;;;;;;5007486;28;20535;-51
2023/10/05 12:59:50;;;;;;;2.20;1.20;;;17.90;66.70;;;;;;5008835;28;20477;-51
2023/10/05 13:02:18;;;;;;;4.00;2.07;;;17.90;66.80;;;;;;5009549;28;20452;-52
2023/10/05 13:04:47;;;;;;;1.50;1.10;;;17.90;66.70;;;;;;5009684;28;21084;-49
2023/10/05 13:07:18;;;;;;;2.37;1.40;;;17.90;66.70;;;;;;5006031;28;20449;-50
2023/10/05 13:09:48;;;;;;;3.03;1.20;;;17.90;66.80;;;;;;5006421;28;20909;-50
2023/10/05 13:12:20;;;;;;;2.37;1.73;;;17.90;66.80;;;;;;5012760;28;20444;-51
2023/10/05 13:14:49;;;;;;;2.23;1.43;;;17.90;66.60;;;;;;5007593;28;20864;-51